sensor_id;sensor_type;location;lat;lon;timestamp;temperature;humidity
42031;DHT22;27709;52.036;5.906;2023-03-21T00:01:53;10.50;99.90
42031;DHT22;27709;52.036;5.906;2023-03-21T00:04:19;10.50;99.90
42031;DHT22;27709;52.036;5.906;2023-03-21T00:06:44;10.50;99.90
42031;DHT22;27709;52.036;5.906;2023-03-21T00:09:10;10.50;99.90
42031;DHT22;27709;52.036;5.906;2023-03-21T00:11:37;10.40;99.90
42031;DHT22;27709;52.036;5.906;2023-03-21T00:14:02;10.40;99.90
42031;DHT22;27709;52.036;5.906;2023-03-21T00:16:27;10.50;99.90
42031;DHT22;27709;52.036;5.906;2023-03-21T00:19:00;10.40;99.90
42031;DHT22;27709;52.036;5.906;2023-03-21T00:21:27;10.40;99.90
42031;DHT22;27709;52.036;5.906;2023-03-21T00:23:56;10.40;99.90
42031;DHT22;27709;52.036;5.906;2023-03-21T00:26:22;10.40;99.90
42031;DHT22;27709;52.036;5.906;2023-03-21T00:28:48;10.40;99.90
42031;DHT22;27709;52.036;5.906;2023-03-21T00:31:14;10.30;99.90
42031;DHT22;27709;52.036;5.906;2023-03-21T00:33:39;10.30;99.90
42031;DHT22;27709;52.036;5.906;2023-03-21T00:36:06;10.40;99.90
42031;DHT22;27709;52.036;5.906;2023-03-21T00:38:31;10.40;99.90
42031;DHT22;27709;52.036;5.906;2023-03-21T00:40:58;10.40;99.90
42031;DHT22;27709;52.036;5.906;2023-03-21T00:43:25;10.40;99.90
42031;DHT22;27709;52.036;5.906;2023-03-21T00:45:59;10.40;99.90
42031;DHT22;27709;52.036;5.906;2023-03-21T00:48:30;10.40;99.90
42031;DHT22;27709;52.036;5.906;2023-03-21T00:50:56;10.40;99.90
42031;DHT22;27709;52.036;5.906;2023-03-21T00:53:23;10.30;99.90
42031;DHT22;27709;52.036;5.906;2023-03-21T00:55:49;10.30;99.90
42031;DHT22;27709;52.036;5.906;2023-03-21T00:58:14;10.30;99.90
42031;DHT22;27709;52.036;5.906;2023-03-21T01:00:40;10.30;99.90
42031;DHT22;27709;52.036;5.906;2023-03-21T01:03:07;10.30;99.90
42031;DHT22;27709;52.036;5.906;2023-03-21T01:05:34;10.30;99.90
42031;DHT22;27709;52.036;5.906;2023-03-21T01:08:19;10.30;99.90
42031;DHT22;27709;52.036;5.906;2023-03-21T01:10:45;10.30;99.90
42031;DHT22;27709;52.036;5.906;2023-03-21T01:13:13;10.30;99.90
42031;DHT22;27709;52.036;5.906;2023-03-21T01:15:43;10.30;99.90
42031;DHT22;27709;52.036;5.906;2023-03-21T01:18:09;10.30;99.90
42031;DHT22;27709;52.036;5.906;2023-03-21T01:20:34;10.30;99.90
42031;DHT22;27709;52.036;5.906;2023-03-21T01:23:00;10.30;99.90
42031;DHT22;27709;52.036;5.906;2023-03-21T01:25:25;10.30;99.90
42031;DHT22;27709;52.036;5.906;2023-03-21T01:27:51;10.30;99.90
42031;DHT22;27709;52.036;5.906;2023-03-21T01:30:18;10.30;99.90
42031;DHT22;27709;52.036;5.906;2023-03-21T01:32:43;10.30;99.90
42031;DHT22;27709;52.036;5.906;2023-03-21T01:35:09;10.30;99.90
42031;DHT22;27709;52.036;5.906;2023-03-21T01:37:34;10.30;99.90
42031;DHT22;27709;52.036;5.906;2023-03-21T01:40:00;10.30;99.90
42031;DHT22;27709;52.036;5.906;2023-03-21T01:42:26;10.30;99.90
42031;DHT22;27709;52.036;5.906;2023-03-21T01:47:17;10.30;99.90
42031;DHT22;27709;52.036;5.906;2023-03-21T01:49:43;10.30;99.90
42031;DHT22;27709;52.036;5.906;2023-03-21T01:52:10;10.30;99.90
42031;DHT22;27709;52.036;5.906;2023-03-21T01:54:37;10.20;99.90
42031;DHT22;27709;52.036;5.906;2023-03-21T01:57:07;10.30;99.90
42031;DHT22;27709;52.036;5.906;2023-03-21T01:59:47;10.20;99.90
42031;DHT22;27709;52.036;5.906;2023-03-21T02:02:18;10.30;99.90
42031;DHT22;27709;52.036;5.906;2023-03-21T02:04:45;10.20;99.90
42031;DHT22;27709;52.036;5.906;2023-03-21T02:07:17;10.20;99.90
42031;DHT22;27709;52.036;5.906;2023-03-21T02:09:44;10.20;99.90
42031;DHT22;27709;52.036;5.906;2023-03-21T02:12:11;10.20;99.90
42031;DHT22;27709;52.036;5.906;2023-03-21T02:14:36;10.20;99.90
42031;DHT22;27709;52.036;5.906;2023-03-21T02:19:38;10.20;99.90
42031;DHT22;27709;52.036;5.906;2023-03-21T02:22:22;10.20;99.90
42031;DHT22;27709;52.036;5.906;2023-03-21T02:27:23;10.20;99.90
42031;DHT22;27709;52.036;5.906;2023-03-21T02:29:55;10.20;99.90
42031;DHT22;27709;52.036;5.906;2023-03-21T02:45:25;10.20;99.90
42031;DHT22;27709;52.036;5.906;2023-03-21T02:47:50;10.20;99.90
42031;DHT22;27709;52.036;5.906;2023-03-21T02:50:18;10.20;99.90
42031;DHT22;27709;52.036;5.906;2023-03-21T02:52:46;10.20;99.90
42031;DHT22;27709;52.036;5.906;2023-03-21T02:55:13;10.20;99.90
42031;DHT22;27709;52.036;5.906;2023-03-21T02:57:40;10.20;99.90
42031;DHT22;27709;52.036;5.906;2023-03-21T03:00:07;10.20;99.90
42031;DHT22;27709;52.036;5.906;2023-03-21T03:02:36;10.20;99.90
42031;DHT22;27709;52.036;5.906;2023-03-21T03:05:10;10.20;99.90
42031;DHT22;27709;52.036;5.906;2023-03-21T03:10:14;10.20;99.90
42031;DHT22;27709;52.036;5.906;2023-03-21T03:12:48;10.20;99.90
42031;DHT22;27709;52.036;5.906;2023-03-21T03:15:23;10.20;99.90
42031;DHT22;27709;52.036;5.906;2023-03-21T03:20:28;10.20;99.90
42031;DHT22;27709;52.036;5.906;2023-03-21T03:25:54;10.20;99.90
42031;DHT22;27709;52.036;5.906;2023-03-21T03:28:25;10.20;99.90
42031;DHT22;27709;52.036;5.906;2023-03-21T03:30:52;10.20;99.90
42031;DHT22;27709;52.036;5.906;2023-03-21T03:33:19;10.20;99.90
42031;DHT22;27709;52.036;5.906;2023-03-21T03:35:47;10.20;99.90
42031;DHT22;27709;52.036;5.906;2023-03-21T03:38:14;10.20;99.90
42031;DHT22;27709;52.036;5.906;2023-03-21T03:40:43;10.20;99.90
42031;DHT22;27709;52.036;5.906;2023-03-21T03:43:10;10.20;99.90
42031;DHT22;27709;52.036;5.906;2023-03-21T03:45:48;10.20;99.90
42031;DHT22;27709;52.036;5.906;2023-03-21T03:48:20;10.20;99.90
42031;DHT22;27709;52.036;5.906;2023-03-21T03:50:51;10.20;99.90
42031;DHT22;27709;52.036;5.906;2023-03-21T03:53:33;10.20;99.90
42031;DHT22;27709;52.036;5.906;2023-03-21T03:56:01;10.10;99.90
42031;DHT22;27709;52.036;5.906;2023-03-21T03:58:27;10.10;99.90
42031;DHT22;27709;52.036;5.906;2023-03-21T04:00:53;10.10;99.90
42031;DHT22;27709;52.036;5.906;2023-03-21T04:03:19;10.10;99.90
42031;DHT22;27709;52.036;5.906;2023-03-21T04:05:44;10.10;99.90
42031;DHT22;27709;52.036;5.906;2023-03-21T04:08:11;10.10;99.90
42031;DHT22;27709;52.036;5.906;2023-03-21T04:10:36;10.10;99.90
42031;DHT22;27709;52.036;5.906;2023-03-21T04:13:02;10.10;99.90
42031;DHT22;27709;52.036;5.906;2023-03-21T04:15:27;10.10;99.90
42031;DHT22;27709;52.036;5.906;2023-03-21T04:17:53;10.10;99.90
42031;DHT22;27709;52.036;5.906;2023-03-21T04:20:18;10.10;99.90
42031;DHT22;27709;52.036;5.906;2023-03-21T04:22:44;10.10;99.90
42031;DHT22;27709;52.036;5.906;2023-03-21T04:25:09;10.10;99.90
42031;DHT22;27709;52.036;5.906;2023-03-21T04:27:35;10.10;99.90
42031;DHT22;27709;52.036;5.906;2023-03-21T04:30:01;10.10;99.90
42031;DHT22;27709;52.036;5.906;2023-03-21T04:32:26;10.10;99.90
42031;DHT22;27709;52.036;5.906;2023-03-21T04:34:52;10.10;99.90
42031;DHT22;27709;52.036;5.906;2023-03-21T04:37:21;10.10;99.90
42031;DHT22;27709;52.036;5.906;2023-03-21T04:39:48;10.10;99.90
42031;DHT22;27709;52.036;5.906;2023-03-21T04:42:14;10.10;99.90
42031;DHT22;27709;52.036;5.906;2023-03-21T04:44:40;10.10;99.90
42031;DHT22;27709;52.036;5.906;2023-03-21T04:47:05;10.10;99.90
42031;DHT22;27709;52.036;5.906;2023-03-21T04:49:31;10.10;99.90
42031;DHT22;27709;52.036;5.906;2023-03-21T04:51:57;10.10;99.90
42031;DHT22;27709;52.036;5.906;2023-03-21T04:54:22;10.10;99.90
42031;DHT22;27709;52.036;5.906;2023-03-21T04:56:48;10.10;99.90
42031;DHT22;27709;52.036;5.906;2023-03-21T04:59:16;10.10;99.90
42031;DHT22;27709;52.036;5.906;2023-03-21T05:01:41;10.10;99.90
42031;DHT22;27709;52.036;5.906;2023-03-21T05:04:08;10.10;99.90
42031;DHT22;27709;52.036;5.906;2023-03-21T05:06:33;10.10;99.90
42031;DHT22;27709;52.036;5.906;2023-03-21T05:08:59;10.10;99.90
42031;DHT22;27709;52.036;5.906;2023-03-21T05:11:26;10.10;99.90
42031;DHT22;27709;52.036;5.906;2023-03-21T05:13:52;10.00;99.90
42031;DHT22;27709;52.036;5.906;2023-03-21T05:16:17;10.00;99.90
42031;DHT22;27709;52.036;5.906;2023-03-21T05:18:43;10.00;99.90
42031;DHT22;27709;52.036;5.906;2023-03-21T05:21:08;10.00;99.90
42031;DHT22;27709;52.036;5.906;2023-03-21T05:23:37;10.00;99.90
42031;DHT22;27709;52.036;5.906;2023-03-21T05:26:04;10.10;99.90
42031;DHT22;27709;52.036;5.906;2023-03-21T05:28:30;10.10;99.90
42031;DHT22;27709;52.036;5.906;2023-03-21T05:30:56;10.10;99.90
42031;DHT22;27709;52.036;5.906;2023-03-21T05:33:21;10.10;99.90
42031;DHT22;27709;52.036;5.906;2023-03-21T05:35:49;10.10;99.90
42031;DHT22;27709;52.036;5.906;2023-03-21T05:38:14;10.10;99.90
42031;DHT22;27709;52.036;5.906;2023-03-21T05:40:39;10.00;99.90
42031;DHT22;27709;52.036;5.906;2023-03-21T05:43:05;10.00;99.90
42031;DHT22;27709;52.036;5.906;2023-03-21T05:45:30;10.00;99.90
42031;DHT22;27709;52.036;5.906;2023-03-21T05:47:56;10.00;99.90
42031;DHT22;27709;52.036;5.906;2023-03-21T05:50:21;10.00;99.90
42031;DHT22;27709;52.036;5.906;2023-03-21T05:52:47;10.00;99.90
42031;DHT22;27709;52.036;5.906;2023-03-21T05:55:12;10.00;99.90
42031;DHT22;27709;52.036;5.906;2023-03-21T05:57:37;10.00;99.90
42031;DHT22;27709;52.036;5.906;2023-03-21T06:00:05;10.00;99.90
42031;DHT22;27709;52.036;5.906;2023-03-21T06:02:31;10.00;99.90
42031;DHT22;27709;52.036;5.906;2023-03-21T06:04:56;10.00;99.90
42031;DHT22;27709;52.036;5.906;2023-03-21T06:07:23;10.00;99.90
42031;DHT22;27709;52.036;5.906;2023-03-21T06:09:49;10.00;99.90
42031;DHT22;27709;52.036;5.906;2023-03-21T06:12:14;10.00;99.90
42031;DHT22;27709;52.036;5.906;2023-03-21T06:14:40;10.00;99.90
42031;DHT22;27709;52.036;5.906;2023-03-21T06:17:05;10.00;99.90
42031;DHT22;27709;52.036;5.906;2023-03-21T06:19:31;10.00;99.90
42031;DHT22;27709;52.036;5.906;2023-03-21T06:21:56;10.00;99.90
42031;DHT22;27709;52.036;5.906;2023-03-21T06:24:22;10.00;99.90
42031;DHT22;27709;52.036;5.906;2023-03-21T06:26:47;10.10;99.90
42031;DHT22;27709;52.036;5.906;2023-03-21T06:29:13;10.10;99.90
42031;DHT22;27709;52.036;5.906;2023-03-21T06:31:38;10.10;99.90
42031;DHT22;27709;52.036;5.906;2023-03-21T06:34:04;10.10;99.90
42031;DHT22;27709;52.036;5.906;2023-03-21T06:36:29;10.10;99.90
42031;DHT22;27709;52.036;5.906;2023-03-21T06:38:55;10.10;99.90
42031;DHT22;27709;52.036;5.906;2023-03-21T06:41:20;10.10;99.90
42031;DHT22;27709;52.036;5.906;2023-03-21T06:43:46;10.10;99.90
42031;DHT22;27709;52.036;5.906;2023-03-21T06:46:12;10.10;99.90
42031;DHT22;27709;52.036;5.906;2023-03-21T06:48:38;10.10;99.90
42031;DHT22;27709;52.036;5.906;2023-03-21T06:51:09;10.10;99.90
42031;DHT22;27709;52.036;5.906;2023-03-21T06:53:36;10.10;99.90
42031;DHT22;27709;52.036;5.906;2023-03-21T06:56:02;10.20;99.90
42031;DHT22;27709;52.036;5.906;2023-03-21T06:58:27;10.20;99.90
42031;DHT22;27709;52.036;5.906;2023-03-21T07:00:52;10.20;99.90
42031;DHT22;27709;52.036;5.906;2023-03-21T07:03:18;10.20;99.90
42031;DHT22;27709;52.036;5.906;2023-03-21T07:05:43;10.20;99.90
42031;DHT22;27709;52.036;5.906;2023-03-21T07:08:09;10.30;99.90
42031;DHT22;27709;52.036;5.906;2023-03-21T07:10:37;10.30;99.90
42031;DHT22;27709;52.036;5.906;2023-03-21T07:13:03;10.30;99.90
42031;DHT22;27709;52.036;5.906;2023-03-21T07:15:28;10.30;99.90
42031;DHT22;27709;52.036;5.906;2023-03-21T07:17:54;10.30;99.90
42031;DHT22;27709;52.036;5.906;2023-03-21T07:20:19;10.40;99.90
42031;DHT22;27709;52.036;5.906;2023-03-21T07:22:45;10.40;99.90
42031;DHT22;27709;52.036;5.906;2023-03-21T07:25:10;10.50;99.90
42031;DHT22;27709;52.036;5.906;2023-03-21T07:27:36;10.50;99.90
42031;DHT22;27709;52.036;5.906;2023-03-21T07:30:02;10.50;99.90
42031;DHT22;27709;52.036;5.906;2023-03-21T07:32:30;10.60;99.90
42031;DHT22;27709;52.036;5.906;2023-03-21T07:34:58;10.60;99.90
42031;DHT22;27709;52.036;5.906;2023-03-21T07:37:24;10.70;99.90
42031;DHT22;27709;52.036;5.906;2023-03-21T07:39:49;10.70;99.90
42031;DHT22;27709;52.036;5.906;2023-03-21T07:42:15;10.80;99.90
42031;DHT22;27709;52.036;5.906;2023-03-21T07:44:41;10.80;99.90
42031;DHT22;27709;52.036;5.906;2023-03-21T07:47:07;10.80;99.90
42031;DHT22;27709;52.036;5.906;2023-03-21T07:49:32;10.80;99.90
42031;DHT22;27709;52.036;5.906;2023-03-21T07:51:58;10.80;99.90
42031;DHT22;27709;52.036;5.906;2023-03-21T07:54:24;10.80;99.90
42031;DHT22;27709;52.036;5.906;2023-03-21T07:56:49;10.80;99.90
42031;DHT22;27709;52.036;5.906;2023-03-21T07:59:15;10.80;99.90
42031;DHT22;27709;52.036;5.906;2023-03-21T08:01:40;10.80;99.90
42031;DHT22;27709;52.036;5.906;2023-03-21T08:04:06;10.80;99.90
42031;DHT22;27709;52.036;5.906;2023-03-21T08:06:32;10.80;99.90
42031;DHT22;27709;52.036;5.906;2023-03-21T08:08:58;10.80;99.90
42031;DHT22;27709;52.036;5.906;2023-03-21T08:11:23;10.80;99.90
42031;DHT22;27709;52.036;5.906;2023-03-21T08:13:49;10.80;99.90
42031;DHT22;27709;52.036;5.906;2023-03-21T08:16:16;10.80;99.90
42031;DHT22;27709;52.036;5.906;2023-03-21T08:18:41;10.80;99.90
42031;DHT22;27709;52.036;5.906;2023-03-21T08:21:07;10.80;99.90
42031;DHT22;27709;52.036;5.906;2023-03-21T08:23:32;10.90;99.90
42031;DHT22;27709;52.036;5.906;2023-03-21T08:25:58;10.90;99.90
42031;DHT22;27709;52.036;5.906;2023-03-21T08:28:24;10.90;99.90
42031;DHT22;27709;52.036;5.906;2023-03-21T08:30:49;11.00;99.90
42031;DHT22;27709;52.036;5.906;2023-03-21T08:33:15;11.00;99.90
42031;DHT22;27709;52.036;5.906;2023-03-21T08:35:43;11.00;99.90
42031;DHT22;27709;52.036;5.906;2023-03-21T08:38:08;11.00;99.90
42031;DHT22;27709;52.036;5.906;2023-03-21T08:40:34;10.90;99.90
42031;DHT22;27709;52.036;5.906;2023-03-21T08:43:00;11.00;99.90
42031;DHT22;27709;52.036;5.906;2023-03-21T08:45:26;11.00;99.90
42031;DHT22;27709;52.036;5.906;2023-03-21T08:47:51;11.10;99.90
42031;DHT22;27709;52.036;5.906;2023-03-21T08:50:21;11.10;99.90
42031;DHT22;27709;52.036;5.906;2023-03-21T08:52:47;11.10;99.90
42031;DHT22;27709;52.036;5.906;2023-03-21T08:55:13;11.20;99.90
42031;DHT22;27709;52.036;5.906;2023-03-21T08:57:39;11.10;99.90
42031;DHT22;27709;52.036;5.906;2023-03-21T09:00:05;11.20;99.90
42031;DHT22;27709;52.036;5.906;2023-03-21T09:02:37;11.20;99.90
42031;DHT22;27709;52.036;5.906;2023-03-21T09:05:02;11.20;99.90
42031;DHT22;27709;52.036;5.906;2023-03-21T09:07:30;11.30;99.90
42031;DHT22;27709;52.036;5.906;2023-03-21T09:09:58;11.30;99.90
42031;DHT22;27709;52.036;5.906;2023-03-21T09:12:24;11.40;99.90
42031;DHT22;27709;52.036;5.906;2023-03-21T09:14:50;11.40;99.90
42031;DHT22;27709;52.036;5.906;2023-03-21T09:17:17;11.50;99.90
42031;DHT22;27709;52.036;5.906;2023-03-21T09:19:43;11.60;99.90
42031;DHT22;27709;52.036;5.906;2023-03-21T09:22:08;11.60;99.90
42031;DHT22;27709;52.036;5.906;2023-03-21T09:24:42;11.70;99.90
42031;DHT22;27709;52.036;5.906;2023-03-21T09:27:08;11.70;99.90
42031;DHT22;27709;52.036;5.906;2023-03-21T09:29:34;11.80;99.90
42031;DHT22;27709;52.036;5.906;2023-03-21T09:32:00;11.80;99.90
42031;DHT22;27709;52.036;5.906;2023-03-21T09:34:26;11.90;99.90
42031;DHT22;27709;52.036;5.906;2023-03-21T09:36:51;11.80;99.90
42031;DHT22;27709;52.036;5.906;2023-03-21T09:39:20;11.90;99.90
42031;DHT22;27709;52.036;5.906;2023-03-21T09:41:53;11.90;99.90
42031;DHT22;27709;52.036;5.906;2023-03-21T09:44:30;11.90;99.90
42031;DHT22;27709;52.036;5.906;2023-03-21T09:49:34;12.00;99.90
42031;DHT22;27709;52.036;5.906;2023-03-21T09:52:02;12.00;99.90
42031;DHT22;27709;52.036;5.906;2023-03-21T09:54:34;12.00;99.90
42031;DHT22;27709;52.036;5.906;2023-03-21T09:57:03;12.00;99.90
42031;DHT22;27709;52.036;5.906;2023-03-21T09:59:33;12.00;99.90
42031;DHT22;27709;52.036;5.906;2023-03-21T10:04:59;12.00;99.90
42031;DHT22;27709;52.036;5.906;2023-03-21T10:07:25;12.00;99.90
42031;DHT22;27709;52.036;5.906;2023-03-21T10:09:52;12.00;99.90
42031;DHT22;27709;52.036;5.906;2023-03-21T10:12:19;12.00;99.90
42031;DHT22;27709;52.036;5.906;2023-03-21T10:14:49;12.00;99.90
42031;DHT22;27709;52.036;5.906;2023-03-21T10:19:41;12.00;99.90
42031;DHT22;27709;52.036;5.906;2023-03-21T10:22:10;12.10;99.90
42031;DHT22;27709;52.036;5.906;2023-03-21T10:24:36;12.20;99.90
42031;DHT22;27709;52.036;5.906;2023-03-21T10:27:01;12.30;99.90
42031;DHT22;27709;52.036;5.906;2023-03-21T10:29:32;12.30;99.90
42031;DHT22;27709;52.036;5.906;2023-03-21T10:32:01;12.40;99.90
42031;DHT22;27709;52.036;5.906;2023-03-21T10:34:38;12.40;99.90
42031;DHT22;27709;52.036;5.906;2023-03-21T10:37:05;12.50;99.90
42031;DHT22;27709;52.036;5.906;2023-03-21T10:39:37;12.60;99.90
42031;DHT22;27709;52.036;5.906;2023-03-21T10:42:04;12.70;99.90
42031;DHT22;27709;52.036;5.906;2023-03-21T10:44:32;12.80;99.90
42031;DHT22;27709;52.036;5.906;2023-03-21T10:47:02;12.90;99.90
42031;DHT22;27709;52.036;5.906;2023-03-21T10:49:29;12.90;99.90
42031;DHT22;27709;52.036;5.906;2023-03-21T10:51:55;13.00;99.90
42031;DHT22;27709;52.036;5.906;2023-03-21T10:54:24;13.00;99.90
42031;DHT22;27709;52.036;5.906;2023-03-21T10:56:54;13.00;99.90
42031;DHT22;27709;52.036;5.906;2023-03-21T10:59:21;13.00;99.90
42031;DHT22;27709;52.036;5.906;2023-03-21T11:01:47;13.10;99.90
42031;DHT22;27709;52.036;5.906;2023-03-21T11:04:18;13.10;99.90
42031;DHT22;27709;52.036;5.906;2023-03-21T11:06:49;13.10;99.90
42031;DHT22;27709;52.036;5.906;2023-03-21T11:09:16;13.20;99.90
42031;DHT22;27709;52.036;5.906;2023-03-21T11:11:55;13.30;99.90
42031;DHT22;27709;52.036;5.906;2023-03-21T11:14:36;13.50;99.90
42031;DHT22;27709;52.036;5.906;2023-03-21T11:17:06;13.60;99.90
42031;DHT22;27709;52.036;5.906;2023-03-21T11:19:32;13.70;99.90
42031;DHT22;27709;52.036;5.906;2023-03-21T11:22:03;13.80;99.90
42031;DHT22;27709;52.036;5.906;2023-03-21T11:24:29;13.90;99.90
42031;DHT22;27709;52.036;5.906;2023-03-21T11:26:56;14.00;99.90
42031;DHT22;27709;52.036;5.906;2023-03-21T11:29:29;13.90;99.90
42031;DHT22;27709;52.036;5.906;2023-03-21T11:31:59;13.90;99.90
42031;DHT22;27709;52.036;5.906;2023-03-21T11:34:27;13.90;99.90
42031;DHT22;27709;52.036;5.906;2023-03-21T11:36:59;13.90;99.90
42031;DHT22;27709;52.036;5.906;2023-03-21T11:41:50;13.80;99.90
42031;DHT22;27709;52.036;5.906;2023-03-21T11:44:27;13.90;99.90
42031;DHT22;27709;52.036;5.906;2023-03-21T11:46:53;13.80;99.90
42031;DHT22;27709;52.036;5.906;2023-03-21T11:49:19;13.80;99.90
42031;DHT22;27709;52.036;5.906;2023-03-21T11:51:59;13.80;99.90
42031;DHT22;27709;52.036;5.906;2023-03-21T11:54:36;13.80;99.90
42031;DHT22;27709;52.036;5.906;2023-03-21T11:57:13;13.80;99.90
42031;DHT22;27709;52.036;5.906;2023-03-21T12:05:16;14.20;99.90
42031;DHT22;27709;52.036;5.906;2023-03-21T12:20:27;14.10;99.90
42031;DHT22;27709;52.036;5.906;2023-03-21T12:25:28;14.20;99.90
42031;DHT22;27709;52.036;5.906;2023-03-21T12:30:31;14.30;99.90
42031;DHT22;27709;52.036;5.906;2023-03-21T12:33:13;14.20;99.90
42031;DHT22;27709;52.036;5.906;2023-03-21T12:35:42;14.30;99.90
42031;DHT22;27709;52.036;5.906;2023-03-21T12:45:51;14.10;99.90
42031;DHT22;27709;52.036;5.906;2023-03-21T12:50:53;14.00;99.90
42031;DHT22;27709;52.036;5.906;2023-03-21T12:55:49;14.10;99.90
42031;DHT22;27709;52.036;5.906;2023-03-21T12:58:16;14.10;99.90
42031;DHT22;27709;52.036;5.906;2023-03-21T13:00:44;14.20;99.90
42031;DHT22;27709;52.036;5.906;2023-03-21T13:03:23;14.30;99.90
42031;DHT22;27709;52.036;5.906;2023-03-21T13:08:23;14.50;99.90
42031;DHT22;27709;52.036;5.906;2023-03-21T13:10:49;14.70;99.90
42031;DHT22;27709;52.036;5.906;2023-03-21T13:13:21;14.80;99.90
42031;DHT22;27709;52.036;5.906;2023-03-21T13:18:22;15.00;99.90
42031;DHT22;27709;52.036;5.906;2023-03-21T13:20:56;15.00;99.90
42031;DHT22;27709;52.036;5.906;2023-03-21T13:23:23;15.00;99.90
42031;DHT22;27709;52.036;5.906;2023-03-21T13:25:51;15.00;99.90
42031;DHT22;27709;52.036;5.906;2023-03-21T13:28:27;15.00;99.90
42031;DHT22;27709;52.036;5.906;2023-03-21T13:30:53;15.00;99.90
42031;DHT22;27709;52.036;5.906;2023-03-21T13:33:38;15.10;99.90
42031;DHT22;27709;52.036;5.906;2023-03-21T13:36:12;15.10;99.90
42031;DHT22;27709;52.036;5.906;2023-03-21T13:38:38;15.10;99.90
42031;DHT22;27709;52.036;5.906;2023-03-21T13:41:11;15.00;99.90
42031;DHT22;27709;52.036;5.906;2023-03-21T13:53:58;15.40;99.90
42031;DHT22;27709;52.036;5.906;2023-03-21T13:56:25;15.60;99.90
42031;DHT22;27709;52.036;5.906;2023-03-21T13:59:01;15.70;99.90
42031;DHT22;27709;52.036;5.906;2023-03-21T14:01:39;15.80;99.90
42031;DHT22;27709;52.036;5.906;2023-03-21T14:04:09;15.80;99.90
42031;DHT22;27709;52.036;5.906;2023-03-21T14:06:54;15.80;99.90
42031;DHT22;27709;52.036;5.906;2023-03-21T14:09:23;15.80;99.90
42031;DHT22;27709;52.036;5.906;2023-03-21T14:11:50;16.00;99.90
42031;DHT22;27709;52.036;5.906;2023-03-21T14:14:18;16.00;99.90
42031;DHT22;27709;52.036;5.906;2023-03-21T14:16:47;16.00;99.90
42031;DHT22;27709;52.036;5.906;2023-03-21T14:19:12;15.90;99.90
42031;DHT22;27709;52.036;5.906;2023-03-21T14:21:44;15.80;99.90
42031;DHT22;27709;52.036;5.906;2023-03-21T14:24:11;15.60;99.90
42031;DHT22;27709;52.036;5.906;2023-03-21T14:26:47;15.50;99.90
42031;DHT22;27709;52.036;5.906;2023-03-21T14:29:19;15.50;99.90
42031;DHT22;27709;52.036;5.906;2023-03-21T14:31:46;15.60;99.90
42031;DHT22;27709;52.036;5.906;2023-03-21T14:34:14;15.60;99.90
42031;DHT22;27709;52.036;5.906;2023-03-21T14:36:41;15.60;99.90
42031;DHT22;27709;52.036;5.906;2023-03-21T14:39:17;15.40;99.90
42031;DHT22;27709;52.036;5.906;2023-03-21T14:41:54;15.30;99.90
42031;DHT22;27709;52.036;5.906;2023-03-21T14:44:25;15.20;99.90
42031;DHT22;27709;52.036;5.906;2023-03-21T14:47:04;15.20;99.90
42031;DHT22;27709;52.036;5.906;2023-03-21T14:49:41;15.10;99.90
42031;DHT22;27709;52.036;5.906;2023-03-21T14:52:11;15.10;99.90
42031;DHT22;27709;52.036;5.906;2023-03-21T14:54:41;15.20;99.90
42031;DHT22;27709;52.036;5.906;2023-03-21T14:57:10;15.20;99.90
42031;DHT22;27709;52.036;5.906;2023-03-21T14:59:37;15.20;99.90
42031;DHT22;27709;52.036;5.906;2023-03-21T15:02:14;15.20;99.90
42031;DHT22;27709;52.036;5.906;2023-03-21T15:04:47;15.20;99.90
42031;DHT22;27709;52.036;5.906;2023-03-21T15:07:27;15.20;99.90
42031;DHT22;27709;52.036;5.906;2023-03-21T15:09:54;15.30;99.90
42031;DHT22;27709;52.036;5.906;2023-03-21T15:12:19;15.20;99.90
42031;DHT22;27709;52.036;5.906;2023-03-21T15:14:49;15.20;99.90
42031;DHT22;27709;52.036;5.906;2023-03-21T15:17:19;15.10;99.90
42031;DHT22;27709;52.036;5.906;2023-03-21T15:19:45;15.00;99.90
42031;DHT22;27709;52.036;5.906;2023-03-21T15:22:16;14.90;99.90
42031;DHT22;27709;52.036;5.906;2023-03-21T15:24:44;14.90;99.90
42031;DHT22;27709;52.036;5.906;2023-03-21T15:27:14;14.90;99.90
42031;DHT22;27709;52.036;5.906;2023-03-21T15:29:42;14.90;99.90
42031;DHT22;27709;52.036;5.906;2023-03-21T15:32:14;14.80;99.90
42031;DHT22;27709;52.036;5.906;2023-03-21T15:34:40;14.80;99.90
42031;DHT22;27709;52.036;5.906;2023-03-21T15:37:07;14.70;99.90
42031;DHT22;27709;52.036;5.906;2023-03-21T15:39:38;14.60;99.90
42031;DHT22;27709;52.036;5.906;2023-03-21T15:44:48;14.60;99.90
42031;DHT22;27709;52.036;5.906;2023-03-21T15:50:06;14.60;99.90
42031;DHT22;27709;52.036;5.906;2023-03-21T15:52:32;14.60;99.90
42031;DHT22;27709;52.036;5.906;2023-03-21T15:54:57;14.50;99.90
42031;DHT22;27709;52.036;5.906;2023-03-21T15:57:24;14.40;99.90
42031;DHT22;27709;52.036;5.906;2023-03-21T15:59:59;14.40;99.90
42031;DHT22;27709;52.036;5.906;2023-03-21T16:02:29;14.40;99.90
42031;DHT22;27709;52.036;5.906;2023-03-21T16:07:22;14.40;99.90
42031;DHT22;27709;52.036;5.906;2023-03-21T16:09:48;14.40;99.90
42031;DHT22;27709;52.036;5.906;2023-03-21T16:12:14;14.40;99.90
42031;DHT22;27709;52.036;5.906;2023-03-21T16:14:40;14.40;99.90
42031;DHT22;27709;52.036;5.906;2023-03-21T16:20:18;14.40;99.90
42031;DHT22;27709;52.036;5.906;2023-03-21T16:22:44;14.40;99.90
42031;DHT22;27709;52.036;5.906;2023-03-21T16:25:10;14.40;99.90
42031;DHT22;27709;52.036;5.906;2023-03-21T16:27:35;14.40;99.90
42031;DHT22;27709;52.036;5.906;2023-03-21T16:30:01;14.30;99.90
42031;DHT22;27709;52.036;5.906;2023-03-21T16:32:26;14.40;99.90
42031;DHT22;27709;52.036;5.906;2023-03-21T16:34:53;14.30;99.90
42031;DHT22;27709;52.036;5.906;2023-03-21T16:37:18;14.30;99.90
42031;DHT22;27709;52.036;5.906;2023-03-21T16:39:45;14.30;99.90
42031;DHT22;27709;52.036;5.906;2023-03-21T16:42:11;14.20;99.90
42031;DHT22;27709;52.036;5.906;2023-03-21T16:44:37;14.10;99.90
42031;DHT22;27709;52.036;5.906;2023-03-21T16:47:16;14.10;99.90
42031;DHT22;27709;52.036;5.906;2023-03-21T16:49:42;14.10;99.90
42031;DHT22;27709;52.036;5.906;2023-03-21T16:52:08;14.00;99.90
42031;DHT22;27709;52.036;5.906;2023-03-21T16:54:34;13.90;99.90
42031;DHT22;27709;52.036;5.906;2023-03-21T16:56:59;13.90;99.90
42031;DHT22;27709;52.036;5.906;2023-03-21T16:59:27;13.90;99.90
42031;DHT22;27709;52.036;5.906;2023-03-21T17:01:52;13.90;99.90
42031;DHT22;27709;52.036;5.906;2023-03-21T17:04:18;13.90;99.90
42031;DHT22;27709;52.036;5.906;2023-03-21T17:06:48;13.80;99.90
42031;DHT22;27709;52.036;5.906;2023-03-21T17:09:15;13.80;99.90
42031;DHT22;27709;52.036;5.906;2023-03-21T17:11:40;13.70;99.90
42031;DHT22;27709;52.036;5.906;2023-03-21T17:14:07;13.60;99.90
42031;DHT22;27709;52.036;5.906;2023-03-21T17:16:33;13.60;99.90